sensor_id;sensor_type;location;lat;lon;timestamp;temperature;humidity
55135;DHT22;41031;44.750;11.308;2023-05-10T00:00:25;17.40;90.60
55135;DHT22;41031;44.750;11.308;2023-05-10T00:02:52;17.40;90.80
55135;DHT22;41031;44.750;11.308;2023-05-10T00:05:19;17.30;90.90
55135;DHT22;41031;44.750;11.308;2023-05-10T00:07:47;17.30;90.90
55135;DHT22;41031;44.750;11.308;2023-05-10T00:10:13;17.30;91.10
55135;DHT22;41031;44.750;11.308;2023-05-10T00:12:41;17.30;91.20
55135;DHT22;41031;44.750;11.308;2023-05-10T00:15:09;17.30;91.30
55135;DHT22;41031;44.750;11.308;2023-05-10T00:17:36;17.30;91.40
55135;DHT22;41031;44.750;11.308;2023-05-10T00:20:03;17.20;91.50
55135;DHT22;41031;44.750;11.308;2023-05-10T00:22:32;17.20;91.60
55135;DHT22;41031;44.750;11.308;2023-05-10T00:24:59;17.20;91.70
55135;DHT22;41031;44.750;11.308;2023-05-10T00:27:26;17.20;91.80
55135;DHT22;41031;44.750;11.308;2023-05-10T00:29:53;17.10;91.90
55135;DHT22;41031;44.750;11.308;2023-05-10T00:32:19;17.10;92.10
55135;DHT22;41031;44.750;11.308;2023-05-10T00:34:47;17.10;92.20
55135;DHT22;41031;44.750;11.308;2023-05-10T00:37:14;17.00;92.30
55135;DHT22;41031;44.750;11.308;2023-05-10T00:39:41;17.00;92.40
55135;DHT22;41031;44.750;11.308;2023-05-10T00:42:08;17.00;92.60
55135;DHT22;41031;44.750;11.308;2023-05-10T00:44:35;16.90;92.70
55135;DHT22;41031;44.750;11.308;2023-05-10T00:47:02;16.90;93.00
55135;DHT22;41031;44.750;11.308;2023-05-10T00:49:30;16.90;93.20
55135;DHT22;41031;44.750;11.308;2023-05-10T00:51:58;16.80;93.30
55135;DHT22;41031;44.750;11.308;2023-05-10T00:54:25;16.80;93.40
55135;DHT22;41031;44.750;11.308;2023-05-10T00:56:53;16.70;93.40
55135;DHT22;41031;44.750;11.308;2023-05-10T00:59:20;16.70;93.30
55135;DHT22;41031;44.750;11.308;2023-05-10T01:01:47;16.60;93.10
55135;DHT22;41031;44.750;11.308;2023-05-10T01:04:15;16.50;93.00
55135;DHT22;41031;44.750;11.308;2023-05-10T01:06:42;16.50;93.00
55135;DHT22;41031;44.750;11.308;2023-05-10T01:09:10;16.50;93.30
55135;DHT22;41031;44.750;11.308;2023-05-10T01:11:38;16.40;93.40
55135;DHT22;41031;44.750;11.308;2023-05-10T01:14:06;16.40;93.60
55135;DHT22;41031;44.750;11.308;2023-05-10T01:16:37;16.40;94.00
55135;DHT22;41031;44.750;11.308;2023-05-10T01:19:22;16.40;94.20
55135;DHT22;41031;44.750;11.308;2023-05-10T01:27:29;16.30;94.90
55135;DHT22;41031;44.750;11.308;2023-05-10T01:35:37;16.30;95.30
55135;DHT22;41031;44.750;11.308;2023-05-10T01:38:18;16.30;95.30
55135;DHT22;41031;44.750;11.308;2023-05-10T01:46:27;16.20;95.20
55135;DHT22;41031;44.750;11.308;2023-05-10T01:48:58;16.20;95.30
55135;DHT22;41031;44.750;11.308;2023-05-10T01:51:35;16.20;95.20
55135;DHT22;41031;44.750;11.308;2023-05-10T01:54:05;16.20;95.30
55135;DHT22;41031;44.750;11.308;2023-05-10T01:56:33;16.20;95.40
55135;DHT22;41031;44.750;11.308;2023-05-10T01:59:07;16.20;95.50
55135;DHT22;41031;44.750;11.308;2023-05-10T02:01:36;16.10;95.50
55135;DHT22;41031;44.750;11.308;2023-05-10T02:04:07;16.10;95.60
55135;DHT22;41031;44.750;11.308;2023-05-10T02:06:37;16.10;95.70
55135;DHT22;41031;44.750;11.308;2023-05-10T02:09:06;16.10;95.70
55135;DHT22;41031;44.750;11.308;2023-05-10T02:11:33;16.10;95.80
55135;DHT22;41031;44.750;11.308;2023-05-10T02:14:01;16.10;95.80
55135;DHT22;41031;44.750;11.308;2023-05-10T02:16:29;16.10;95.80
55135;DHT22;41031;44.750;11.308;2023-05-10T02:18:59;16.10;95.80
55135;DHT22;41031;44.750;11.308;2023-05-10T02:21:28;16.00;95.80
55135;DHT22;41031;44.750;11.308;2023-05-10T02:23:57;16.00;95.90
55135;DHT22;41031;44.750;11.308;2023-05-10T02:26:25;16.00;95.90
55135;DHT22;41031;44.750;11.308;2023-05-10T02:28:53;16.00;95.70
55135;DHT22;41031;44.750;11.308;2023-05-10T02:31:22;15.90;95.80
55135;DHT22;41031;44.750;11.308;2023-05-10T02:33:50;15.90;95.90
55135;DHT22;41031;44.750;11.308;2023-05-10T02:36:17;15.80;95.90
55135;DHT22;41031;44.750;11.308;2023-05-10T02:38:47;15.90;95.90
55135;DHT22;41031;44.750;11.308;2023-05-10T02:41:15;15.90;96.00
55135;DHT22;41031;44.750;11.308;2023-05-10T02:43:43;15.80;95.90
55135;DHT22;41031;44.750;11.308;2023-05-10T02:46:11;15.80;95.90
55135;DHT22;41031;44.750;11.308;2023-05-10T02:48:38;15.80;96.00
55135;DHT22;41031;44.750;11.308;2023-05-10T02:51:06;15.80;96.00
55135;DHT22;41031;44.750;11.308;2023-05-10T02:53:36;15.80;95.90
55135;DHT22;41031;44.750;11.308;2023-05-10T02:56:10;15.80;95.90
55135;DHT22;41031;44.750;11.308;2023-05-10T02:58:39;15.80;96.00
55135;DHT22;41031;44.750;11.308;2023-05-10T03:01:06;15.70;96.00
55135;DHT22;41031;44.750;11.308;2023-05-10T03:03:34;15.70;95.90
55135;DHT22;41031;44.750;11.308;2023-05-10T03:06:01;15.70;95.90
55135;DHT22;41031;44.750;11.308;2023-05-10T03:08:28;15.70;95.90
55135;DHT22;41031;44.750;11.308;2023-05-10T03:16:44;15.60;95.90
55135;DHT22;41031;44.750;11.308;2023-05-10T03:19:24;15.70;96.00
55135;DHT22;41031;44.750;11.308;2023-05-10T03:21:57;15.60;95.90
55135;DHT22;41031;44.750;11.308;2023-05-10T03:24:30;15.60;95.90
55135;DHT22;41031;44.750;11.308;2023-05-10T03:27:00;15.60;95.90
55135;DHT22;41031;44.750;11.308;2023-05-10T03:29:31;15.70;96.00
55135;DHT22;41031;44.750;11.308;2023-05-10T03:31:59;15.60;95.80
55135;DHT22;41031;44.750;11.308;2023-05-10T03:34:30;15.60;95.90
55135;DHT22;41031;44.750;11.308;2023-05-10T03:36:58;15.60;95.90
55135;DHT22;41031;44.750;11.308;2023-05-10T03:39:29;15.60;96.00
55135;DHT22;41031;44.750;11.308;2023-05-10T03:41:58;15.60;96.00
55135;DHT22;41031;44.750;11.308;2023-05-10T03:44:25;15.60;96.00
55135;DHT22;41031;44.750;11.308;2023-05-10T03:46:52;15.60;96.10
55135;DHT22;41031;44.750;11.308;2023-05-10T03:49:19;15.60;96.10
55135;DHT22;41031;44.750;11.308;2023-05-10T03:51:47;15.50;96.10
55135;DHT22;41031;44.750;11.308;2023-05-10T03:54:15;15.50;96.20
55135;DHT22;41031;44.750;11.308;2023-05-10T03:56:42;15.50;96.20
55135;DHT22;41031;44.750;11.308;2023-05-10T03:59:09;15.50;96.30
55135;DHT22;41031;44.750;11.308;2023-05-10T04:01:36;15.50;96.40
55135;DHT22;41031;44.750;11.308;2023-05-10T04:04:03;15.50;96.40
55135;DHT22;41031;44.750;11.308;2023-05-10T04:06:31;15.60;96.50
55135;DHT22;41031;44.750;11.308;2023-05-10T04:08:58;15.60;96.40
55135;DHT22;41031;44.750;11.308;2023-05-10T04:11:30;15.60;96.30
55135;DHT22;41031;44.750;11.308;2023-05-10T04:13:57;15.60;96.20
55135;DHT22;41031;44.750;11.308;2023-05-10T04:16:24;15.60;96.30
55135;DHT22;41031;44.750;11.308;2023-05-10T04:18:51;15.60;96.30
55135;DHT22;41031;44.750;11.308;2023-05-10T04:21:18;15.60;96.30
55135;DHT22;41031;44.750;11.308;2023-05-10T04:23:45;15.50;96.20
55135;DHT22;41031;44.750;11.308;2023-05-10T04:26:13;15.50;96.20
55135;DHT22;41031;44.750;11.308;2023-05-10T04:28:40;15.50;96.20
55135;DHT22;41031;44.750;11.308;2023-05-10T04:31:09;15.40;96.30
55135;DHT22;41031;44.750;11.308;2023-05-10T04:33:36;15.40;96.40
55135;DHT22;41031;44.750;11.308;2023-05-10T04:36:03;15.40;96.60
55135;DHT22;41031;44.750;11.308;2023-05-10T04:38:30;15.40;96.70
55135;DHT22;41031;44.750;11.308;2023-05-10T04:41:05;15.40;96.70
55135;DHT22;41031;44.750;11.308;2023-05-10T04:43:32;15.40;96.80
55135;DHT22;41031;44.750;11.308;2023-05-10T04:46:00;15.40;96.70
55135;DHT22;41031;44.750;11.308;2023-05-10T04:48:27;15.40;96.60
55135;DHT22;41031;44.750;11.308;2023-05-10T04:50:54;15.40;96.60
55135;DHT22;41031;44.750;11.308;2023-05-10T04:53:21;15.30;96.60
55135;DHT22;41031;44.750;11.308;2023-05-10T04:55:48;15.30;96.80
55135;DHT22;41031;44.750;11.308;2023-05-10T04:58:15;15.20;97.00
55135;DHT22;41031;44.750;11.308;2023-05-10T05:00:42;15.20;97.20
55135;DHT22;41031;44.750;11.308;2023-05-10T05:03:09;15.10;97.30
55135;DHT22;41031;44.750;11.308;2023-05-10T05:05:36;15.10;97.40
55135;DHT22;41031;44.750;11.308;2023-05-10T05:08:03;15.10;97.50
55135;DHT22;41031;44.750;11.308;2023-05-10T05:10:30;15.10;97.40
55135;DHT22;41031;44.750;11.308;2023-05-10T05:12:57;15.10;97.40
55135;DHT22;41031;44.750;11.308;2023-05-10T05:15:24;15.00;97.50
55135;DHT22;41031;44.750;11.308;2023-05-10T05:17:51;15.00;97.60
55135;DHT22;41031;44.750;11.308;2023-05-10T05:20:18;15.00;97.60
55135;DHT22;41031;44.750;11.308;2023-05-10T05:22:45;15.00;97.70
55135;DHT22;41031;44.750;11.308;2023-05-10T05:25:12;15.00;97.70
55135;DHT22;41031;44.750;11.308;2023-05-10T05:27:39;15.00;97.60
55135;DHT22;41031;44.750;11.308;2023-05-10T05:30:07;15.00;97.60
55135;DHT22;41031;44.750;11.308;2023-05-10T05:32:34;15.00;97.60
55135;DHT22;41031;44.750;11.308;2023-05-10T05:35:01;15.00;97.70
55135;DHT22;41031;44.750;11.308;2023-05-10T05:37:28;15.00;97.70
55135;DHT22;41031;44.750;11.308;2023-05-10T05:39:55;15.00;97.80
55135;DHT22;41031;44.750;11.308;2023-05-10T05:42:22;15.00;97.80
55135;DHT22;41031;44.750;11.308;2023-05-10T05:44:49;15.00;97.70
55135;DHT22;41031;44.750;11.308;2023-05-10T05:47:16;15.00;97.70
55135;DHT22;41031;44.750;11.308;2023-05-10T05:49:43;15.00;97.60
55135;DHT22;41031;44.750;11.308;2023-05-10T05:52:12;15.00;97.50
55135;DHT22;41031;44.750;11.308;2023-05-10T05:54:40;15.00;97.50
55135;DHT22;41031;44.750;11.308;2023-05-10T05:57:07;15.00;97.50
55135;DHT22;41031;44.750;11.308;2023-05-10T05:59:34;15.00;97.50
55135;DHT22;41031;44.750;11.308;2023-05-10T06:02:01;15.10;97.60
55135;DHT22;41031;44.750;11.308;2023-05-10T06:04:28;15.10;97.60
55135;DHT22;41031;44.750;11.308;2023-05-10T06:06:55;15.10;97.60
55135;DHT22;41031;44.750;11.308;2023-05-10T06:09:22;15.10;97.70
55135;DHT22;41031;44.750;11.308;2023-05-10T06:11:51;15.10;97.70
55135;DHT22;41031;44.750;11.308;2023-05-10T06:14:20;15.10;97.60
55135;DHT22;41031;44.750;11.308;2023-05-10T06:16:47;15.10;97.60
55135;DHT22;41031;44.750;11.308;2023-05-10T06:19:14;15.20;97.70
55135;DHT22;41031;44.750;11.308;2023-05-10T06:21:41;15.20;97.80
55135;DHT22;41031;44.750;11.308;2023-05-10T06:24:08;15.20;97.90
55135;DHT22;41031;44.750;11.308;2023-05-10T06:26:35;15.20;97.90
55135;DHT22;41031;44.750;11.308;2023-05-10T06:29:03;15.20;97.90
55135;DHT22;41031;44.750;11.308;2023-05-10T06:31:29;15.20;97.90
55135;DHT22;41031;44.750;11.308;2023-05-10T06:33:56;15.30;97.90
55135;DHT22;41031;44.750;11.308;2023-05-10T06:36:24;15.30;97.90
55135;DHT22;41031;44.750;11.308;2023-05-10T06:38:53;15.30;97.90
55135;DHT22;41031;44.750;11.308;2023-05-10T06:41:20;15.40;97.80
55135;DHT22;41031;44.750;11.308;2023-05-10T06:43:50;15.30;97.60
55135;DHT22;41031;44.750;11.308;2023-05-10T06:46:17;15.30;97.60
55135;DHT22;41031;44.750;11.308;2023-05-10T06:48:44;15.30;97.40
55135;DHT22;41031;44.750;11.308;2023-05-10T06:51:11;15.30;97.40
55135;DHT22;41031;44.750;11.308;2023-05-10T06:53:38;15.30;97.60
55135;DHT22;41031;44.750;11.308;2023-05-10T06:56:05;15.30;97.70
55135;DHT22;41031;44.750;11.308;2023-05-10T06:58:32;15.30;97.70
55135;DHT22;41031;44.750;11.308;2023-05-10T07:01:03;15.30;97.70
55135;DHT22;41031;44.750;11.308;2023-05-10T07:03:31;15.30;97.50
55135;DHT22;41031;44.750;11.308;2023-05-10T07:06:04;15.30;97.60
55135;DHT22;41031;44.750;11.308;2023-05-10T07:08:41;15.30;97.60
55135;DHT22;41031;44.750;11.308;2023-05-10T07:11:09;15.30;97.50
55135;DHT22;41031;44.750;11.308;2023-05-10T07:13:37;15.30;97.40
55135;DHT22;41031;44.750;11.308;2023-05-10T07:16:05;15.20;97.20
55135;DHT22;41031;44.750;11.308;2023-05-10T07:18:33;15.20;97.40
55135;DHT22;41031;44.750;11.308;2023-05-10T07:21:00;15.20;97.50
55135;DHT22;41031;44.750;11.308;2023-05-10T07:23:27;15.10;97.40
55135;DHT22;41031;44.750;11.308;2023-05-10T07:25:54;15.10;97.60
55135;DHT22;41031;44.750;11.308;2023-05-10T07:28:21;15.10;97.70
55135;DHT22;41031;44.750;11.308;2023-05-10T07:30:48;15.00;97.70
55135;DHT22;41031;44.750;11.308;2023-05-10T07:33:16;15.00;97.80
55135;DHT22;41031;44.750;11.308;2023-05-10T07:35:43;15.00;97.70
55135;DHT22;41031;44.750;11.308;2023-05-10T07:38:10;15.00;97.60
55135;DHT22;41031;44.750;11.308;2023-05-10T07:40:40;15.00;97.70
55135;DHT22;41031;44.750;11.308;2023-05-10T07:43:07;15.00;97.80
55135;DHT22;41031;44.750;11.308;2023-05-10T07:45:34;15.00;97.90
55135;DHT22;41031;44.750;11.308;2023-05-10T07:48:01;15.00;97.70
55135;DHT22;41031;44.750;11.308;2023-05-10T07:50:29;15.00;97.80
55135;DHT22;41031;44.750;11.308;2023-05-10T07:52:56;15.00;97.80
55135;DHT22;41031;44.750;11.308;2023-05-10T07:55:23;15.00;97.90
55135;DHT22;41031;44.750;11.308;2023-05-10T07:57:50;15.00;97.90
55135;DHT22;41031;44.750;11.308;2023-05-10T08:00:18;15.00;97.60
55135;DHT22;41031;44.750;11.308;2023-05-10T08:02:46;14.90;97.60
55135;DHT22;41031;44.750;11.308;2023-05-10T08:05:13;14.90;97.70
55135;DHT22;41031;44.750;11.308;2023-05-10T08:07:41;14.80;97.50
55135;DHT22;41031;44.750;11.308;2023-05-10T08:10:09;14.80;97.60
55135;DHT22;41031;44.750;11.308;2023-05-10T08:12:38;14.80;97.60
55135;DHT22;41031;44.750;11.308;2023-05-10T08:15:05;14.80;97.60
55135;DHT22;41031;44.750;11.308;2023-05-10T08:17:33;14.70;97.60
55135;DHT22;41031;44.750;11.308;2023-05-10T08:20:00;14.70;97.60
55135;DHT22;41031;44.750;11.308;2023-05-10T08:22:27;14.70;97.70
55135;DHT22;41031;44.750;11.308;2023-05-10T08:24:54;14.70;97.80
55135;DHT22;41031;44.750;11.308;2023-05-10T08:27:21;14.70;97.90
55135;DHT22;41031;44.750;11.308;2023-05-10T08:29:48;14.70;97.90
55135;DHT22;41031;44.750;11.308;2023-05-10T08:32:17;14.80;98.30
55135;DHT22;41031;44.750;11.308;2023-05-10T08:34:43;14.80;98.10
55135;DHT22;41031;44.750;11.308;2023-05-10T08:37:11;14.80;98.20
55135;DHT22;41031;44.750;11.308;2023-05-10T08:39:40;14.80;98.20
55135;DHT22;41031;44.750;11.308;2023-05-10T08:42:07;14.80;98.00
55135;DHT22;41031;44.750;11.308;2023-05-10T08:44:36;14.80;97.90
55135;DHT22;41031;44.750;11.308;2023-05-10T08:47:06;14.80;97.70
55135;DHT22;41031;44.750;11.308;2023-05-10T08:49:34;14.80;97.70
55135;DHT22;41031;44.750;11.308;2023-05-10T08:52:05;14.80;97.60
55135;DHT22;41031;44.750;11.308;2023-05-10T08:54:34;14.70;97.90
55135;DHT22;41031;44.750;11.308;2023-05-10T08:57:01;14.70;98.10
55135;DHT22;41031;44.750;11.308;2023-05-10T08:59:28;14.70;98.20
55135;DHT22;41031;44.750;11.308;2023-05-10T09:01:59;14.80;98.00
55135;DHT22;41031;44.750;11.308;2023-05-10T09:04:27;14.70;98.00
55135;DHT22;41031;44.750;11.308;2023-05-10T09:06:54;14.70;98.00
55135;DHT22;41031;44.750;11.308;2023-05-10T09:09:22;14.70;98.00
55135;DHT22;41031;44.750;11.308;2023-05-10T09:11:49;14.70;97.70
55135;DHT22;41031;44.750;11.308;2023-05-10T09:14:16;14.70;97.60
55135;DHT22;41031;44.750;11.308;2023-05-10T09:16:44;14.60;97.80
55135;DHT22;41031;44.750;11.308;2023-05-10T09:19:11;14.60;97.80
55135;DHT22;41031;44.750;11.308;2023-05-10T09:21:38;14.60;98.00
55135;DHT22;41031;44.750;11.308;2023-05-10T09:24:06;14.60;98.00
55135;DHT22;41031;44.750;11.308;2023-05-10T09:26:35;14.60;98.10
55135;DHT22;41031;44.750;11.308;2023-05-10T09:29:02;14.60;97.90
55135;DHT22;41031;44.750;11.308;2023-05-10T09:31:49;14.60;98.10
55135;DHT22;41031;44.750;11.308;2023-05-10T09:34:29;14.60;98.20
55135;DHT22;41031;44.750;11.308;2023-05-10T09:37:01;14.60;98.20
55135;DHT22;41031;44.750;11.308;2023-05-10T09:39:36;14.50;98.20
55135;DHT22;41031;44.750;11.308;2023-05-10T09:42:05;14.50;98.30
55135;DHT22;41031;44.750;11.308;2023-05-10T09:44:33;14.50;98.30
55135;DHT22;41031;44.750;11.308;2023-05-10T09:47:01;14.50;98.30
55135;DHT22;41031;44.750;11.308;2023-05-10T09:49:29;14.40;98.40
55135;DHT22;41031;44.750;11.308;2023-05-10T09:52:06;14.40;98.50
55135;DHT22;41031;44.750;11.308;2023-05-10T09:54:34;14.40;98.50
55135;DHT22;41031;44.750;11.308;2023-05-10T09:57:01;14.40;98.70
55135;DHT22;41031;44.750;11.308;2023-05-10T09:59:29;14.40;98.70
55135;DHT22;41031;44.750;11.308;2023-05-10T10:02:00;14.40;98.90
55135;DHT22;41031;44.750;11.308;2023-05-10T10:04:27;14.40;99.10
55135;DHT22;41031;44.750;11.308;2023-05-10T10:06:59;14.30;98.80
55135;DHT22;41031;44.750;11.308;2023-05-10T10:09:27;14.30;98.90
55135;DHT22;41031;44.750;11.308;2023-05-10T10:11:54;14.30;98.90
55135;DHT22;41031;44.750;11.308;2023-05-10T10:14:23;14.30;98.90
55135;DHT22;41031;44.750;11.308;2023-05-10T10:16:52;14.30;98.90
55135;DHT22;41031;44.750;11.308;2023-05-10T10:19:34;14.20;98.90
55135;DHT22;41031;44.750;11.308;2023-05-10T10:22:04;14.20;98.90
55135;DHT22;41031;44.750;11.308;2023-05-10T10:24:32;14.20;99.00
55135;DHT22;41031;44.750;11.308;2023-05-10T10:35:53;14.20;99.00
55135;DHT22;41031;44.750;11.308;2023-05-10T10:38:21;14.20;99.00
55135;DHT22;41031;44.750;11.308;2023-05-10T10:41:02;14.10;98.90
55135;DHT22;41031;44.750;11.308;2023-05-10T10:43:29;14.10;99.00
55135;DHT22;41031;44.750;11.308;2023-05-10T10:46:17;14.10;99.10
55135;DHT22;41031;44.750;11.308;2023-05-10T10:49:08;14.10;99.10
55135;DHT22;41031;44.750;11.308;2023-05-10T10:51:39;14.20;99.20
55135;DHT22;41031;44.750;11.308;2023-05-10T10:54:10;14.10;99.10
55135;DHT22;41031;44.750;11.308;2023-05-10T10:56:37;14.10;99.20
55135;DHT22;41031;44.750;11.308;2023-05-10T10:59:04;14.10;99.20
55135;DHT22;41031;44.750;11.308;2023-05-10T11:01:34;14.10;99.30
55135;DHT22;41031;44.750;11.308;2023-05-10T11:06:34;14.20;99.50
55135;DHT22;41031;44.750;11.308;2023-05-10T11:09:11;14.20;99.60
55135;DHT22;41031;44.750;11.308;2023-05-10T11:11:52;14.30;99.60
55135;DHT22;41031;44.750;11.308;2023-05-10T11:14:22;14.30;99.40
55135;DHT22;41031;44.750;11.308;2023-05-10T11:16:49;14.30;99.40
55135;DHT22;41031;44.750;11.308;2023-05-10T11:19:17;14.30;99.30
55135;DHT22;41031;44.750;11.308;2023-05-10T11:22:11;14.30;99.10
55135;DHT22;41031;44.750;11.308;2023-05-10T11:24:39;14.30;99.10
55135;DHT22;41031;44.750;11.308;2023-05-10T11:27:06;14.30;99.20
55135;DHT22;41031;44.750;11.308;2023-05-10T11:29:33;14.20;99.20
55135;DHT22;41031;44.750;11.308;2023-05-10T11:32:00;14.30;99.30
55135;DHT22;41031;44.750;11.308;2023-05-10T11:34:29;14.30;99.30
55135;DHT22;41031;44.750;11.308;2023-05-10T11:36:57;14.20;99.30
55135;DHT22;41031;44.750;11.308;2023-05-10T11:39:31;14.20;99.40
55135;DHT22;41031;44.750;11.308;2023-05-10T11:41:59;14.30;99.60
55135;DHT22;41031;44.750;11.308;2023-05-10T11:44:33;14.30;99.70
55135;DHT22;41031;44.750;11.308;2023-05-10T11:47:00;14.30;99.70
55135;DHT22;41031;44.750;11.308;2023-05-10T11:49:27;14.40;99.60
55135;DHT22;41031;44.750;11.308;2023-05-10T11:52:04;14.30;99.40
55135;DHT22;41031;44.750;11.308;2023-05-10T11:54:32;14.30;99.40
55135;DHT22;41031;44.750;11.308;2023-05-10T11:57:01;14.30;99.40
55135;DHT22;41031;44.750;11.308;2023-05-10T11:59:29;14.30;99.60
55135;DHT22;41031;44.750;11.308;2023-05-10T12:01:56;14.30;99.90
55135;DHT22;41031;44.750;11.308;2023-05-10T12:04:23;14.30;99.70
55135;DHT22;41031;44.750;11.308;2023-05-10T12:06:50;14.30;99.70
55135;DHT22;41031;44.750;11.308;2023-05-10T12:09:17;14.30;99.70
55135;DHT22;41031;44.750;11.308;2023-05-10T12:11:57;14.30;99.60
55135;DHT22;41031;44.750;11.308;2023-05-10T12:14:24;14.30;99.60
55135;DHT22;41031;44.750;11.308;2023-05-10T12:16:51;14.30;99.70
55135;DHT22;41031;44.750;11.308;2023-05-10T12:19:19;14.30;99.60
55135;DHT22;41031;44.750;11.308;2023-05-10T12:21:49;14.30;99.70
55135;DHT22;41031;44.750;11.308;2023-05-10T12:24:16;14.30;99.70
55135;DHT22;41031;44.750;11.308;2023-05-10T12:26:47;14.20;99.70
55135;DHT22;41031;44.750;11.308;2023-05-10T12:29:16;14.20;99.70
55135;DHT22;41031;44.750;11.308;2023-05-10T12:31:55;14.20;99.70
55135;DHT22;41031;44.750;11.308;2023-05-10T12:34:33;14.20;99.70
55135;DHT22;41031;44.750;11.308;2023-05-10T12:37:03;14.20;99.80
55135;DHT22;41031;44.750;11.308;2023-05-10T12:39:40;14.20;99.90
55135;DHT22;41031;44.750;11.308;2023-05-10T12:42:09;14.20;99.90
55135;DHT22;41031;44.750;11.308;2023-05-10T12:44:36;14.20;99.90
55135;DHT22;41031;44.750;11.308;2023-05-10T12:47:03;14.10;99.90
55135;DHT22;41031;44.750;11.308;2023-05-10T12:49:30;14.10;99.90
55135;DHT22;41031;44.750;11.308;2023-05-10T12:51:57;14.10;99.90
55135;DHT22;41031;44.750;11.308;2023-05-10T12:54:25;14.20;99.90
55135;DHT22;41031;44.750;11.308;2023-05-10T12:56:52;14.20;99.90
55135;DHT22;41031;44.750;11.308;2023-05-10T12:59:19;14.20;99.90
55135;DHT22;41031;44.750;11.308;2023-05-10T13:01:46;14.20;99.90
55135;DHT22;41031;44.750;11.308;2023-05-10T13:04:13;14.20;99.90
55135;DHT22;41031;44.750;11.308;2023-05-10T13:06:40;14.20;99.90
55135;DHT22;41031;44.750;11.308;2023-05-10T13:09:07;14.10;99.90
55135;DHT22;41031;44.750;11.308;2023-05-10T13:11:34;14.10;99.90
55135;DHT22;41031;44.750;11.308;2023-05-10T13:14:01;14.10;99.90
55135;DHT22;41031;44.750;11.308;2023-05-10T13:16:30;14.10;99.90
55135;DHT22;41031;44.750;11.308;2023-05-10T13:18:57;14.10;99.90
55135;DHT22;41031;44.750;11.308;2023-05-10T13:21:25;14.10;99.90
55135;DHT22;41031;44.750;11.308;2023-05-10T13:23:53;14.10;99.90
55135;DHT22;41031;44.750;11.308;2023-05-10T13:26:20;14.20;99.90
55135;DHT22;41031;44.750;11.308;2023-05-10T13:28:47;14.20;99.90
55135;DHT22;41031;44.750;11.308;2023-05-10T13:31:16;14.30;99.90
55135;DHT22;41031;44.750;11.308;2023-05-10T13:33:43;14.30;99.90
55135;DHT22;41031;44.750;11.308;2023-05-10T13:36:10;14.30;99.90
55135;DHT22;41031;44.750;11.308;2023-05-10T13:38:37;14.30;99.90
55135;DHT22;41031;44.750;11.308;2023-05-10T13:41:04;14.30;99.90
55135;DHT22;41031;44.750;11.308;2023-05-10T13:43:31;14.30;99.90
55135;DHT22;41031;44.750;11.308;2023-05-10T13:45:58;14.30;99.90
55135;DHT22;41031;44.750;11.308;2023-05-10T13:48:25;14.40;99.90
55135;DHT22;41031;44.750;11.308;2023-05-10T13:50:52;14.40;99.90
55135;DHT22;41031;44.750;11.308;2023-05-10T13:53:19;14.40;99.90
55135;DHT22;41031;44.750;11.308;2023-05-10T13:55:46;14.50;99.90
55135;DHT22;41031;44.750;11.308;2023-05-10T13:58:13;14.50;99.90
55135;DHT22;41031;44.750;11.308;2023-05-10T14:00:40;14.50;99.90
55135;DHT22;41031;44.750;11.308;2023-05-10T14:03:07;14.60;99.90
55135;DHT22;41031;44.750;11.308;2023-05-10T14:05:38;14.60;99.90
55135;DHT22;41031;44.750;11.308;2023-05-10T14:08:05;14.60;99.90
55135;DHT22;41031;44.750;11.308;2023-05-10T14:10:32;14.60;99.90
55135;DHT22;41031;44.750;11.308;2023-05-10T14:12:59;14.60;99.90
55135;DHT22;41031;44.750;11.308;2023-05-10T14:15:26;14.70;99.90
55135;DHT22;41031;44.750;11.308;2023-05-10T14:17:53;14.70;99.90
55135;DHT22;41031;44.750;11.308;2023-05-10T14:20:20;14.70;99.90
55135;DHT22;41031;44.750;11.308;2023-05-10T14:22:47;14.70;99.90
55135;DHT22;41031;44.750;11.308;2023-05-10T14:25:14;14.80;99.90
55135;DHT22;41031;44.750;11.308;2023-05-10T14:27:42;14.80;99.90
55135;DHT22;41031;44.750;11.308;2023-05-10T14:30:09;14.80;99.90
55135;DHT22;41031;44.750;11.308;2023-05-10T14:32:36;14.80;99.90
55135;DHT22;41031;44.750;11.308;2023-05-10T14:35:04;14.80;99.90
55135;DHT22;41031;44.750;11.308;2023-05-10T14:37:32;14.90;99.90
55135;DHT22;41031;44.750;11.308;2023-05-10T14:40:00;14.90;99.90
55135;DHT22;41031;44.750;11.308;2023-05-10T14:42:27;15.00;99.90
55135;DHT22;41031;44.750;11.308;2023-05-10T14:44:55;15.00;99.90
55135;DHT22;41031;44.750;11.308;2023-05-10T14:47:22;15.00;99.90
55135;DHT22;41031;44.750;11.308;2023-05-10T14:49:49;15.00;99.90
55135;DHT22;41031;44.750;11.308;2023-05-10T14:52:16;15.00;99.90
55135;DHT22;41031;44.750;11.308;2023-05-10T14:54:44;15.00;99.90
55135;DHT22;41031;44.750;11.308;2023-05-10T14:57:10;15.00;99.90
55135;DHT22;41031;44.750;11.308;2023-05-10T14:59:37;15.00;99.90
55135;DHT22;41031;44.750;11.308;2023-05-10T15:02:05;14.90;99.90
55135;DHT22;41031;44.750;11.308;2023-05-10T15:04:33;15.00;99.90
55135;DHT22;41031;44.750;11.308;2023-05-10T15:07:00;15.00;99.90
55135;DHT22;41031;44.750;11.308;2023-05-10T15:09:27;14.90;99.90
55135;DHT22;41031;44.750;11.308;2023-05-10T15:11:55;14.90;99.90
55135;DHT22;41031;44.750;11.308;2023-05-10T15:14:22;14.90;99.90
55135;DHT22;41031;44.750;11.308;2023-05-10T15:16:49;14.90;99.90
55135;DHT22;41031;44.750;11.308;2023-05-10T15:19:16;14.90;99.90
55135;DHT22;41031;44.750;11.308;2023-05-10T15:21:43;14.90;99.90
55135;DHT22;41031;44.750;11.308;2023-05-10T15:24:11;14.90;99.90
55135;DHT22;41031;44.750;11.308;2023-05-10T15:26:38;14.90;99.90
55135;DHT22;41031;44.750;11.308;2023-05-10T15:29:05;14.80;99.90
55135;DHT22;41031;44.750;11.308;2023-05-10T15:31:32;14.80;99.90
55135;DHT22;41031;44.750;11.308;2023-05-10T15:34:01;14.80;99.90
55135;DHT22;41031;44.750;11.308;2023-05-10T15:36:28;14.80;99.90
55135;DHT22;41031;44.750;11.308;2023-05-10T15:38:55;14.70;99.90
55135;DHT22;41031;44.750;11.308;2023-05-10T15:41:22;14.70;99.90
55135;DHT22;41031;44.750;11.308;2023-05-10T15:43:50;14.70;99.90
55135;DHT22;41031;44.750;11.308;2023-05-10T15:46:17;14.60;99.90
55135;DHT22;41031;44.750;11.308;2023-05-10T15:48:44;14.60;99.90
55135;DHT22;41031;44.750;11.308;2023-05-10T15:51:11;14.60;99.90
55135;DHT22;41031;44.750;11.308;2023-05-10T15:53:38;14.60;99.90
55135;DHT22;41031;44.750;11.308;2023-05-10T15:56:18;14.60;99.90